Home > Products > Valid Products > TAF

000
FTUS44 KMRX 201127
TAFTYS
TAF
KTYS 201127Z 2012/2112 VRB03KT P6SM FEW040
     FM201400 VRB04KT P6SM SCT040=



000
FTUS44 KMRX 201127
TAFTRI
TAF
KTRI 201127Z 2012/2112 VRB04KT P6SM FEW040
     FM201300 VRB03KT P6SM SCT040=



000
FTUS44 KMRX 201127
TAFCHA
TAF
KCHA 201127Z 2012/2112 00000KT P6SM SCT040
     FM201400 13006KT P6SM SCT040
     FM210000 00000KT P6SM SKC=



000
FTUS44 KMRX 201127
TAFTRI
TAF
KTRI 201127Z 2012/2112 VRB04KT P6SM FEW040
     FM201300 VRB03KT P6SM SCT040=



000
FTUS44 KMRX 201127
TAFCHA
TAF
KCHA 201127Z 2012/2112 00000KT P6SM SCT040
     FM201400 13006KT P6SM SCT040
     FM210000 00000KT P6SM SKC=



000
FTUS44 KMRX 201127
TAFTYS
TAF
KTYS 201127Z 2012/2112 VRB03KT P6SM FEW040
     FM201400 VRB04KT P6SM SCT040=



000
FTUS44 KMRX 200534
TAFCHA
TAF
KCHA 200534Z 2006/2106 00000KT P6SM SCT060 BKN080
     FM201400 13006KT P6SM SCT040
     FM210000 00000KT P6SM SKC=



000
FTUS44 KMRX 200534
TAFTRI
TAF
KTRI 200534Z 2006/2106 00000KT P6SM SCT090
     FM201000 00000KT 5SM BR SKC
     FM201300 VRB03KT P6SM SCT040=



000
FTUS44 KMRX 200534
TAFTYS
TAF
KTYS 200534Z 2006/2106 VRB03KT P6SM BKN080
     FM201400 VRB04KT P6SM SCT040=



000
FTUS44 KMRX 200336 AAA
TAFCHA
TAF AMD
KCHA 200336Z 2004/2024 00000KT P6SM SCT060 BKN080
     FM201400 13004KT P6SM SCT040=



000
FTUS44 KMRX 200336 AAA
TAFCHA
TAF AMD
KCHA 200336Z 2004/2024 00000KT P6SM SCT060 BKN080
     FM201400 13004KT P6SM SCT040=



000
FTUS44 KMRX 200336 AAA
TAFTYS
TAF AMD
KTYS 200336Z 2004/2024 VRB03KT P6SM BKN090
     FM201400 12004KT P6SM SCT040=



000
FTUS44 KMRX 200336 AAA
TAFTYS
TAF AMD
KTYS 200336Z 2004/2024 VRB03KT P6SM BKN090
     FM201400 12004KT P6SM SCT040=



000
FTUS44 KMRX 200336 AAA
TAFTYS
TAF AMD
KTYS 200336Z 2004/2024 VRB03KT P6SM BKN090
     FM201400 12004KT P6SM SCT040=



000
FTUS44 KMRX 200336 AAA
TAFTYS
TAF AMD
KTYS 200336Z 2004/2024 VRB03KT P6SM BKN090
     FM201400 12004KT P6SM SCT040=



000
FTUS44 KMRX 200336 AAA
TAFCHA
TAF AMD
KCHA 200336Z 2004/2024 00000KT P6SM SCT060 BKN080
     FM201400 13004KT P6SM SCT040=



000
FTUS44 KMRX 200336 AAA
TAFCHA
TAF AMD
KCHA 200336Z 2004/2024 00000KT P6SM SCT060 BKN080
     FM201400 13004KT P6SM SCT040=



000
FTUS44 KMRX 192320
TAFTRI
TAF
KTRI 192320Z 2000/2024 10009KT P6SM SCT040 SCT250
     FM200600 00000KT 4SM BR SKC
      TEMPO 2008/2012 1SM BR SCT001
     FM201400 11003KT P6SM SCT040=



000
FTUS44 KMRX 192320
TAFCHA
TAF
KCHA 192320Z 2000/2024 15006KT P6SM SCT060
     FM200000 00000KT P6SM SCT250
     FM201400 13004KT P6SM SCT040=



000
FTUS44 KMRX 192320
TAFTYS
TAF
KTYS 192320Z 2000/2024 VRB05KT P6SM SCT050
     FM200000 VRB03KT P6SM SCT250
     FM201400 12004KT P6SM SCT040=



000
FTUS44 KMRX 192320
TAFTYS
TAF
KTYS 192320Z 2000/2024 VRB05KT P6SM SCT050
     FM200000 VRB03KT P6SM SCT250
     FM201400 12004KT P6SM SCT040=



000
FTUS44 KMRX 192009 AAA
TAFTRI
TAF AMD
KTRI 192009Z 1920/2018 10009KT P6SM SCT040 SCT250
     FM200600 00000KT 4SM BR SKC
      TEMPO 2008/2012 1SM BR SCT001
     FM201400 VRB03KT P6SM SCT040=



000
FTUS44 KMRX 192009 AAA
TAFTRI
TAF AMD
KTRI 192009Z 1920/2018 10009KT P6SM SCT040 SCT250
     FM200600 00000KT 4SM BR SKC
      TEMPO 2008/2012 1SM BR SCT001
     FM201400 VRB03KT P6SM SCT040=



000
FTUS44 KMRX 191725
TAFTYS
TAF
KTYS 191725Z 1918/2018 VRB05KT P6SM SCT050
     FM200000 VRB03KT P6SM SCT250=



000
FTUS44 KMRX 191725
TAFTRI
TAF
KTRI 191725Z 1918/2018 VRB05KT P6SM SCT040 SCT250
     FM200600 00000KT 4SM BR SKC
      TEMPO 2008/2012 1SM BR SCT001
     FM201400 VRB03KT P6SM SCT040=



000
FTUS44 KMRX 191725
TAFTYS
TAF
KTYS 191725Z 1918/2018 VRB05KT P6SM SCT050
     FM200000 VRB03KT P6SM SCT250=



000
FTUS44 KMRX 191725
TAFTRI
TAF
KTRI 191725Z 1918/2018 VRB05KT P6SM SCT040 SCT250
     FM200600 00000KT 4SM BR SKC
      TEMPO 2008/2012 1SM BR SCT001
     FM201400 VRB03KT P6SM SCT040=



000
FTUS44 KMRX 191725
TAFCHA
TAF
KCHA 191725Z 1918/2018 15006KT P6SM SCT060
     FM200000 VRB03KT P6SM SCT250=



000
FTUS44 KMRX 191123
TAFTYS
TAF
KTYS 191123Z 1912/2012 05004KT P6SM FEW050 SCT250
     FM191500 25006KT P6SM SCT050 SCT250
     FM200100 VRB02KT P6SM FEW070=



000
FTUS44 KMRX 191123
TAFTYS
TAF
KTYS 191123Z 1912/2012 05004KT P6SM FEW050 SCT250
     FM191500 25006KT P6SM SCT050 SCT250
     FM200100 VRB02KT P6SM FEW070=



000
FTUS44 KMRX 191123
TAFCHA
TAF
KCHA 191123Z 1912/2012 VRB03KT P6SM SCT040 BKN250
     FM191600 14005KT P6SM SCT050 SCT250
     FM200100 VRB02KT P6SM SCT250=



000
FTUS44 KMRX 191123
TAFCHA
TAF
KCHA 191123Z 1912/2012 VRB03KT P6SM SCT040 BKN250
     FM191600 14005KT P6SM SCT050 SCT250
     FM200100 VRB02KT P6SM SCT250=



000
FTUS44 KMRX 191123
TAFTRI
TAF
KTRI 191123Z 1912/2012 00000KT P6SM FEW045
     FM191500 13005KT P6SM SCT050 SCT250
     FM200000 00000KT P6SM FEW060
     FM200800 00000KT 4SM BR SKC
     FM201000 00000KT 1SM BR SCT001=



000
FTUS44 KMRX 191123
TAFTRI
TAF
KTRI 191123Z 1912/2012 00000KT P6SM FEW045
     FM191500 13005KT P6SM SCT050 SCT250
     FM200000 00000KT P6SM FEW060
     FM200800 00000KT 4SM BR SKC
     FM201000 00000KT 1SM BR SCT001=



000
FTUS44 KMRX 190916 AAA
TAFTRI
TAF AMD
KTRI 190916Z 1909/2006 00000KT P6SM FEW045
     FM191000 00000KT 5SM BR SCT250
      TEMPO 1910/1912 3SM BR SCT002
     FM191330 VRB04KT P6SM SCT050
     FM200000 00000KT P6SM SCT060=



000
FTUS44 KMRX 190916 AAA
TAFTRI
TAF AMD
KTRI 190916Z 1909/2006 00000KT P6SM FEW045
     FM191000 00000KT 5SM BR SCT250
      TEMPO 1910/1912 3SM BR SCT002
     FM191330 VRB04KT P6SM SCT050
     FM200000 00000KT P6SM SCT060=



000
FTUS44 KMRX 190523
TAFTYS
TAF
KTYS 190523Z 1906/2006 VRB03KT P6SM FEW050 SCT250
     FM191500 04005KT P6SM SCT050
     FM200100 VRB02KT P6SM FEW070=



000
FTUS44 KMRX 190523
TAFTRI
TAF
KTRI 190523Z 1906/2006 00000KT P6SM FEW045
     FM190800 00000KT 3SM BR FEW045 SCT250
     FM190900 00000KT 1 1/2SM BR SCT250
      TEMPO 1909/1912 1/2SM FG BKN002
     FM191330 VRB04KT P6SM SCT050
     FM200000 00000KT P6SM SCT060=



000
FTUS44 KMRX 190523
TAFCHA
TAF
KCHA 190523Z 1906/2006 VRB03KT P6SM SCT070 BKN250
     FM191400 15005KT P6SM SCT060
     FM200100 VRB02KT P6SM SCT250=



000
FTUS44 KMRX 190523
TAFTYS
TAF
KTYS 190523Z 1906/2006 VRB03KT P6SM FEW050 SCT250
     FM191500 04005KT P6SM SCT050
     FM200100 VRB02KT P6SM FEW070=



000
FTUS44 KMRX 190523
TAFCHA
TAF
KCHA 190523Z 1906/2006 VRB03KT P6SM SCT070 BKN250
     FM191400 15005KT P6SM SCT060
     FM200100 VRB02KT P6SM SCT250=



000
FTUS44 KMRX 190523
TAFTRI
TAF
KTRI 190523Z 1906/2006 00000KT P6SM FEW045
     FM190800 00000KT 3SM BR FEW045 SCT250
     FM190900 00000KT 1 1/2SM BR SCT250
      TEMPO 1909/1912 1/2SM FG BKN002
     FM191330 VRB04KT P6SM SCT050
     FM200000 00000KT P6SM SCT060=



000
FTUS44 KMRX 182322
TAFCHA
TAF
KCHA 182322Z 1900/1924 VRB03KT P6SM SCT070 BKN250
     FM191400 05005KT P6SM SCT060=



000
FTUS44 KMRX 182322
TAFTRI
TAF
KTRI 182322Z 1900/1924 00000KT P6SM FEW070 SCT250
     FM190600 00000KT 3SM BR SCT250
     FM190800 00000KT 1 1/2SM BR SCT250
      TEMPO 1908/1912 1/2SM FG BKN002
     FM191400 VRB03KT P6SM SCT050=



000
FTUS44 KMRX 182322
TAFTYS
TAF
KTYS 182322Z 1900/1924 VRB03KT P6SM FEW070 SCT250
     FM191500 04005KT P6SM SCT060=



000
FTUS44 KMRX 182322
TAFTRI
TAF
KTRI 182322Z 1900/1924 00000KT P6SM FEW070 SCT250
     FM190600 00000KT 3SM BR SCT250
     FM190800 00000KT 1 1/2SM BR SCT250
      TEMPO 1908/1912 1/2SM FG BKN002
     FM191400 VRB03KT P6SM SCT050=



000
FTUS44 KMRX 182322
TAFCHA
TAF
KCHA 182322Z 1900/1924 VRB03KT P6SM SCT070 BKN250
     FM191400 05005KT P6SM SCT060=



000
FTUS44 KMRX 182322
TAFTYS
TAF
KTYS 182322Z 1900/1924 VRB03KT P6SM FEW070 SCT250
     FM191500 04005KT P6SM SCT060=



000
FTUS44 KMRX 181723
TAFTRI
TAF
KTRI 181723Z 1818/1918 VRB04KT P6SM SCT030 BKN120
     FM182000 34004KT P6SM FEW070 SCT250
     FM190100 00000KT P6SM SCT250
     FM190800 00000KT 4SM BR SCT250
     FM191400 VRB03KT P6SM SCT080=



000
FTUS44 KMRX 181723
TAFCHA
TAF
KCHA 181723Z 1818/1918 01006KT P6SM FEW100 SCT250
     FM190100 00000KT P6SM SCT250
     FM191400 05004KT P6SM FEW100=



000
FTUS44 KMRX 181723
TAFTYS
TAF
KTYS 181723Z 1818/1918 02005KT P6SM FEW030 SCT100
     FM190100 VRB02KT P6SM SCT250
     FM191400 04005KT P6SM FEW100=



000
FTUS44 KMRX 181723
TAFTRI
TAF
KTRI 181723Z 1818/1918 VRB04KT P6SM SCT030 BKN120
     FM182000 34004KT P6SM FEW070 SCT250
     FM190100 00000KT P6SM SCT250
     FM190800 00000KT 4SM BR SCT250
     FM191400 VRB03KT P6SM SCT080=



000
FTUS44 KMRX 181723
TAFCHA
TAF
KCHA 181723Z 1818/1918 01006KT P6SM FEW100 SCT250
     FM190100 00000KT P6SM SCT250
     FM191400 05004KT P6SM FEW100=



000
FTUS44 KMRX 181723
TAFTYS
TAF
KTYS 181723Z 1818/1918 02005KT P6SM FEW030 SCT100
     FM190100 VRB02KT P6SM SCT250
     FM191400 04005KT P6SM FEW100=



000
FTUS44 KMRX 181120
TAFTRI
TAF
KTRI 181120Z 1812/1912 00000KT 3SM BR SCT002 OVC040
      TEMPO 1812/1814 1/2SM FG OVC002
     FM181400 VRB04KT P6SM SCT040
     FM190100 00000KT P6SM SCT250
     FM190800 00000KT 3SM BR SCT250=



000
FTUS44 KMRX 181120
TAFCHA
TAF
KCHA 181120Z 1812/1912 VRB03KT P6SM SCT080 BKN120
     FM181500 01006KT P6SM FEW040 SCT100
     FM190100 VRB02KT P6SM SCT070=



000
FTUS44 KMRX 181120
TAFTYS
TAF
KTYS 181120Z 1812/1912 VRB02KT P6SM SCT080 OVC110
     FM181500 02005KT P6SM FEW040 SCT100
     FM190100 VRB02KT P6SM SCT250=



000
FTUS44 KMRX 181120
TAFTYS
TAF
KTYS 181120Z 1812/1912 VRB02KT P6SM SCT080 OVC110
     FM181500 02005KT P6SM FEW040 SCT100
     FM190100 VRB02KT P6SM SCT250=



000
FTUS44 KMRX 181120
TAFTRI
TAF
KTRI 181120Z 1812/1912 00000KT 3SM BR SCT002 OVC040
      TEMPO 1812/1814 1/2SM FG OVC002
     FM181400 VRB04KT P6SM SCT040
     FM190100 00000KT P6SM SCT250
     FM190800 00000KT 3SM BR SCT250=



000
FTUS44 KMRX 181120
TAFCHA
TAF
KCHA 181120Z 1812/1912 VRB03KT P6SM SCT080 BKN120
     FM181500 01006KT P6SM FEW040 SCT100
     FM190100 VRB02KT P6SM SCT070=



000
FTUS44 KMRX 181051 AAD
TAFTRI
TAF AMD
KTRI 181051Z 1811/1906 00000KT 3SM BR SCT002 OVC040
      TEMPO 1811/1812 1/2SM FG OVC002
     FM181300 VRB02KT 3SM BR BKN025
     FM181400 VRB04KT P6SM SCT040
     FM190100 00000KT P6SM SCT250=



000
FTUS44 KMRX 181051 AAD
TAFTRI
TAF AMD
KTRI 181051Z 1811/1906 00000KT 3SM BR SCT002 OVC040
      TEMPO 1811/1812 1/2SM FG OVC002
     FM181300 VRB02KT 3SM BR BKN025
     FM181400 VRB04KT P6SM SCT040
     FM190100 00000KT P6SM SCT250=



000
FTUS44 KMRX 180943 AAC
TAFTRI
TAF AMD
KTRI 180943Z 1810/1906 00000KT 3SM BR BKN002 BKN025 OVC040
      TEMPO 1810/1812 1/2SM FG OVC002
     FM181300 VRB02KT 3SM BR BKN025
     FM181400 VRB04KT P6SM SCT040
     FM190100 00000KT P6SM SCT250=



000
FTUS44 KMRX 180941 AAB
TAFTRI
TAF AMD
KTRI 180941Z 1810/1906 00000KT 3SM BR BKN002 BKN025 OVC040
     FM181300 VRB02KT 3SM BR BKN025
     FM181400 VRB04KT P6SM SCT040
     FM190100 00000KT P6SM SCT250=



000
FTUS44 KMRX 180941 AAB
TAFTRI
TAF AMD
KTRI 180941Z 1810/1906 00000KT 3SM BR BKN002 BKN025 OVC040
     FM181300 VRB02KT 3SM BR BKN025
     FM181400 VRB04KT P6SM SCT040
     FM190100 00000KT P6SM SCT250=



000
FTUS44 KMRX 180856 AAA
TAFTRI
TAF AMD
KTRI 180856Z 1809/1906 00000KT 3SM BR SCT100 BKN200
     FM181000 00000KT 1SM BR SCT025 BKN120
     FM181300 VRB02KT 3SM BR BKN025
     FM181400 VRB04KT P6SM SCT040
     FM190100 00000KT P6SM SCT250=



000
FTUS44 KMRX 180856 AAA
TAFTRI
TAF AMD
KTRI 180856Z 1809/1906 00000KT 3SM BR SCT100 BKN200
     FM181000 00000KT 1SM BR SCT025 BKN120
     FM181300 VRB02KT 3SM BR BKN025
     FM181400 VRB04KT P6SM SCT040
     FM190100 00000KT P6SM SCT250=



000
FTUS44 KMRX 180526
TAFTRI
TAF
KTRI 180526Z 1806/1906 00000KT 3SM BR SCT100 BKN200
     FM180900 00000KT 1SM BR SCT025 BKN120
     FM181300 VRB02KT 3SM BR BKN025
     FM181400 VRB04KT P6SM SCT040
     FM190100 00000KT P6SM SCT250=



000
FTUS44 KMRX 180526
TAFCHA
TAF
KCHA 180526Z 1806/1906 VRB03KT P6SM SCT080 BKN120
     FM181500 01006KT P6SM FEW040 SCT100
     FM190100 VRB02KT P6SM SCT070=



000
FTUS44 KMRX 180526
TAFTYS
TAF
KTYS 180526Z 1806/1906 VRB02KT P6SM SCT080 BKN120
     FM181500 02005KT P6SM FEW040 SCT100
     FM190100 VRB02KT P6SM SCT250=



000
FTUS44 KMRX 180526
TAFTRI
TAF
KTRI 180526Z 1806/1906 00000KT 3SM BR SCT100 BKN200
     FM180900 00000KT 1SM BR SCT025 BKN120
     FM181300 VRB02KT 3SM BR BKN025
     FM181400 VRB04KT P6SM SCT040
     FM190100 00000KT P6SM SCT250=



000
FTUS44 KMRX 180526
TAFCHA
TAF
KCHA 180526Z 1806/1906 VRB03KT P6SM SCT080 BKN120
     FM181500 01006KT P6SM FEW040 SCT100
     FM190100 VRB02KT P6SM SCT070=



000
FTUS44 KMRX 180526
TAFTYS
TAF
KTYS 180526Z 1806/1906 VRB02KT P6SM SCT080 BKN120
     FM181500 02005KT P6SM FEW040 SCT100
     FM190100 VRB02KT P6SM SCT250=



000
FTUS44 KMRX 180517 AAA
TAFTRI
TAF AMD
KTRI 180517Z 1805/1824 VRB02KT 5SM BR SCT250
     FM180600 00000KT 3SM BR SCT100 BKN200
     FM180900 00000KT 1SM BR SCT025 BKN150
     FM181300 VRB02KT 3SM BR BKN025
     FM181400 VRB04KT P6SM SCT035=



000
FTUS44 KMRX 180517 AAA
TAFTRI
TAF AMD
KTRI 180517Z 1805/1824 VRB02KT 5SM BR SCT250
     FM180600 00000KT 3SM BR SCT100 BKN200
     FM180900 00000KT 1SM BR SCT025 BKN150
     FM181300 VRB02KT 3SM BR BKN025
     FM181400 VRB04KT P6SM SCT035=



000
FTUS44 KMRX 172333
TAFCHA
TAF
KCHA 172333Z 1800/1824 VRB03KT P6SM SCT090 BKN150
     FM181500 01006KT P6SM FEW040 SCT100=



000
FTUS44 KMRX 172333
TAFTRI
TAF
KTRI 172333Z 1800/1824 VRB02KT P6SM SCT250
     FM180600 00000KT 3SM BR SCT100 BKN200
     FM180900 00000KT 1 1/2SM BR SCT025 BKN150
     FM181300 VRB02KT 3SM BR BKN025
     FM181400 VRB04KT P6SM SCT035=



000
FTUS44 KMRX 172333
TAFTYS
TAF
KTYS 172333Z 1800/1824 VRB03KT P6SM SCT250
     FM180600 VRB02KT P6SM SCT090 BKN150
     FM181400 VRB05KT P6SM FEW040 SCT100=



000
FTUS44 KMRX 172333
TAFCHA
TAF
KCHA 172333Z 1800/1824 VRB03KT P6SM SCT090 BKN150
     FM181500 01006KT P6SM FEW040 SCT100=



000
FTUS44 KMRX 172333
TAFTYS
TAF
KTYS 172333Z 1800/1824 VRB03KT P6SM SCT250
     FM180600 VRB02KT P6SM SCT090 BKN150
     FM181400 VRB05KT P6SM FEW040 SCT100=



000
FTUS44 KMRX 172333
TAFTRI
TAF
KTRI 172333Z 1800/1824 VRB02KT P6SM SCT250
     FM180600 00000KT 3SM BR SCT100 BKN200
     FM180900 00000KT 1 1/2SM BR SCT025 BKN150
     FM181300 VRB02KT 3SM BR BKN025
     FM181400 VRB04KT P6SM SCT035=



000
FTUS44 KMRX 171725
TAFTYS
TAF
KTYS 171725Z 1718/1818 VRB04KT P6SM SCT035 SCT250
     FM180100 VRB02KT P6SM SCT150 BKN250
     FM181400 03003KT P6SM BKN100=



000
FTUS44 KMRX 171725
TAFCHA
TAF
KCHA 171725Z 1718/1818 36003KT P6SM SCT035 BKN250
     FM180100 00000KT P6SM SCT100 BKN150
     FM181400 VRB02KT P6SM BKN100=



000
FTUS44 KMRX 171725
TAFTRI
TAF
KTRI 171725Z 1718/1818 VRB03KT P6SM SCT035
     FM180100 00000KT P6SM SCT025
     FM180800 00000KT 6SM BR BKN020
     FM181400 VRB02KT P6SM SCT025 SCT100=



000
FTUS44 KMRX 171725
TAFTRI
TAF
KTRI 171725Z 1718/1818 VRB03KT P6SM SCT035
     FM180100 00000KT P6SM SCT025
     FM180800 00000KT 6SM BR BKN020
     FM181400 VRB02KT P6SM SCT025 SCT100=



000
FTUS44 KMRX 171725
TAFTYS
TAF
KTYS 171725Z 1718/1818 VRB04KT P6SM SCT035 SCT250
     FM180100 VRB02KT P6SM SCT150 BKN250
     FM181400 03003KT P6SM BKN100=



000
FTUS44 KMRX 171725
TAFCHA
TAF
KCHA 171725Z 1718/1818 36003KT P6SM SCT035 BKN250
     FM180100 00000KT P6SM SCT100 BKN150
     FM181400 VRB02KT P6SM BKN100=



    US Dept of Commerce
    National Oceanic and Atmospheric Administration
    National Weather Service
    1325 East West Highway
    Silver Spring, MD 20910
    Page Author: NWS Internet Services Team
Disclaimer
Information Quality
Credits
Glossary
Privacy Policy
Freedom of Information Act (FOIA)
About Us
Career Opportunities